Terminal Aerodrome Forecast
Issued by NWS

Home | Current Version | Previous Version | Graphics & Text | Print | Product List | Glossary On
Versions: 1 2 3 4 5 6 7 8 9 10 11 12 13 14 15 16 17
000
FTUS43 KMPX 271720
TAFAXN
TAF
KAXN 271720Z 2718/2818 18017G26KT P6SM BKN250
     FM280100 16013G21KT P6SM BKN120
     FM280500 16012KT 3SM TSRA BR BKN025CB OVC050
     FM281100 17012KT 5SM -SHRA BR SCT007 BKN015
     FM281500 25011KT P6SM SCT012 BKN025=

USA.gov is the U.S. government's official web portal to all federal, state and local government web resources and services.